createdAt,value
2019-06-08T00:01:22.970Z,8.45
2019-06-08T00:03:49.076Z,6.80
2019-06-08T00:06:15.078Z,7.25
2019-06-08T00:08:41.219Z,7.12
2019-06-08T00:11:07.333Z,7.12
2019-06-08T00:13:33.323Z,8.08
2019-06-08T00:15:59.342Z,7.72
2019-06-08T00:18:25.354Z,8.33
2019-06-08T00:20:51.545Z,9.25
2019-06-08T00:23:17.732Z,8.78
2019-06-08T00:25:43.647Z,7.65
2019-06-08T00:28:09.770Z,8.48
2019-06-08T00:30:37.157Z,8.55
2019-06-08T00:33:03.405Z,7.47
2019-06-08T00:35:29.479Z,7.67
2019-06-08T00:37:55.498Z,7.72
2019-06-08T00:40:21.695Z,7.65
2019-06-08T00:42:47.708Z,8.50
2019-06-08T00:45:15.259Z,6.20
2019-06-08T00:47:47.881Z,7.08
2019-06-08T00:50:10.393Z,6.30
2019-06-08T00:52:36.602Z,6.97
2019-06-08T00:55:04.520Z,7.72
2019-06-08T00:57:30.650Z,8.00
2019-06-08T00:59:56.589Z,6.90
2019-06-08T01:02:22.728Z,7.75
2019-06-08T01:04:48.880Z,8.05
2019-06-08T01:07:14.989Z,7.62
2019-06-08T01:09:41.029Z,7.25
2019-06-08T01:12:07.134Z,8.05
2019-06-08T01:14:33.268Z,7.67
2019-06-08T01:16:59.378Z,8.55
2019-06-08T01:19:25.483Z,9.18
2019-06-08T01:21:51.487Z,8.53
2019-06-08T01:24:17.503Z,7.62
2019-06-08T01:26:43.538Z,7.75
2019-06-08T01:29:09.549Z,8.30
2019-06-08T01:31:35.679Z,10.10
2019-06-08T01:34:01.825Z,8.40
2019-06-08T01:36:29.121Z,8.98
2019-06-08T01:38:55.277Z,8.63
2019-06-08T01:41:21.430Z,8.70
2019-06-08T01:43:47.433Z,8.65
2019-06-08T01:46:13.481Z,8.68
2019-06-08T01:48:39.890Z,9.63
2019-06-08T01:51:05.789Z,8.90
2019-06-08T01:53:33.021Z,9.13
2019-06-08T01:55:59.239Z,8.78
2019-06-08T01:58:25.417Z,9.60
2019-06-08T02:00:51.561Z,9.50
2019-06-08T02:03:18.074Z,10.78
2019-06-08T02:05:44.142Z,10.05
2019-06-08T02:08:10.281Z,11.08
2019-06-08T02:10:36.408Z,9.48
2019-06-08T02:13:02.623Z,9.55
2019-06-08T02:15:29.146Z,10.40
2019-06-08T02:17:55.247Z,10.55
2019-06-08T02:20:21.486Z,10.50
2019-06-08T02:22:47.656Z,11.15
2019-06-08T02:25:15.563Z,9.40
2019-06-08T02:27:41.767Z,9.60
2019-06-08T02:30:10.792Z,9.83
2019-06-08T02:32:37.424Z,10.08
2019-06-08T02:35:04.930Z,10.43
2019-06-08T02:37:31.033Z,11.15
2019-06-08T02:39:56.940Z,10.30
2019-06-08T02:42:22.943Z,9.50
2019-06-08T02:44:48.857Z,9.93
2019-06-08T02:47:16.418Z,9.48
2019-06-08T02:49:42.576Z,9.70
2019-06-08T02:52:09.587Z,9.58
2019-06-08T02:54:37.843Z,9.20
2019-06-08T02:57:04.387Z,9.23
2019-06-08T02:59:35.667Z,8.75
2019-06-08T03:02:02.642Z,9.65
2019-06-08T03:04:32.903Z,8.65
2019-06-08T03:07:02.369Z,9.08
2019-06-08T03:09:30.545Z,9.28
2019-06-08T03:11:59.565Z,10.10
2019-06-08T03:14:26.037Z,9.85
2019-06-08T03:16:52.194Z,9.85
2019-06-08T03:19:22.301Z,9.33
2019-06-08T03:21:45.942Z,10.90
2019-06-08T03:24:11.866Z,9.78
2019-06-08T03:26:39.706Z,10.53
2019-06-08T03:29:06.009Z,9.20
2019-06-08T03:31:36.180Z,9.85
2019-06-08T03:33:59.844Z,10.03
2019-06-08T03:36:25.984Z,9.45
2019-06-08T03:38:51.981Z,10.18
2019-06-08T03:41:18.085Z,10.30
2019-06-08T03:43:44.119Z,10.13
2019-06-08T03:46:10.014Z,9.90
2019-06-08T03:48:37.205Z,10.75
2019-06-08T03:51:04.035Z,10.58
2019-06-08T03:53:30.045Z,11.25
2019-06-08T03:55:56.193Z,10.10
2019-06-08T03:58:22.226Z,10.25
2019-06-08T04:00:49.186Z,10.75
2019-06-08T04:03:15.478Z,9.80
2019-06-08T04:05:42.702Z,9.50
2019-06-08T04:08:09.428Z,11.75
2019-06-08T04:10:35.338Z,10.80
2019-06-08T04:13:01.253Z,10.63
2019-06-08T04:15:27.253Z,9.93
2019-06-08T04:17:53.367Z,10.80
2019-06-08T04:20:19.368Z,9.28
2019-06-08T04:22:47.131Z,9.35
2019-06-08T04:25:13.529Z,10.58
2019-06-08T04:27:40.459Z,11.22
2019-06-08T04:30:07.760Z,10.95
2019-06-08T04:32:33.880Z,11.63
2019-06-08T04:34:59.918Z,11.08
2019-06-08T04:37:25.907Z,12.40
2019-06-08T04:39:52.007Z,11.05
2019-06-08T04:42:18.017Z,12.25
2019-06-08T04:44:44.637Z,12.28
2019-06-08T04:47:10.945Z,10.65
2019-06-08T04:49:38.495Z,11.03
2019-06-08T04:52:04.661Z,10.25
2019-06-08T04:54:30.969Z,10.48
2019-06-08T04:56:56.954Z,10.90
2019-06-08T04:59:23.057Z,10.25
2019-06-08T05:01:49.371Z,10.68
2019-06-08T05:04:15.574Z,10.23
2019-06-08T05:06:42.776Z,10.55
2019-06-08T05:09:09.088Z,10.32
2019-06-08T05:11:36.387Z,11.08
2019-06-08T05:14:02.908Z,10.60
2019-06-08T05:16:28.950Z,10.65
2019-06-08T05:18:54.862Z,9.85
2019-06-08T05:21:20.903Z,11.43
2019-06-08T05:23:51.177Z,10.53
2019-06-08T05:26:14.705Z,10.93
2019-06-08T05:28:41.244Z,11.43
2019-06-08T05:31:07.329Z,11.20
2019-06-08T05:33:34.379Z,11.63
2019-06-08T05:36:00.519Z,12.00
2019-06-08T05:38:26.559Z,12.03
2019-06-08T05:40:52.669Z,11.43
2019-06-08T05:43:18.829Z,12.25
2019-06-08T05:45:45.718Z,12.37
2019-06-08T05:48:11.808Z,12.30
2019-06-08T05:50:53.103Z,12.23
2019-06-08T05:53:05.756Z,12.75
2019-06-08T05:55:31.968Z,11.65
2019-06-08T05:57:57.876Z,11.97
2019-06-08T06:00:23.983Z,11.85
2019-06-08T06:02:50.990Z,12.33
2019-06-08T06:05:17.223Z,12.28
2019-06-08T06:07:44.659Z,11.12
2019-06-08T06:10:12.965Z,12.10
2019-06-08T06:12:39.071Z,11.93
2019-06-08T06:15:05.777Z,12.55
2019-06-08T06:17:31.928Z,11.85
2019-06-08T06:19:57.939Z,11.12
2019-06-08T06:22:23.844Z,12.30
2019-06-08T06:24:49.850Z,11.68
2019-06-08T06:27:15.997Z,12.78
2019-06-08T06:29:43.399Z,12.70
2019-06-08T06:32:09.763Z,13.32
2019-06-08T06:34:35.904Z,13.83
2019-06-08T06:37:02.332Z,13.20
2019-06-08T06:39:28.474Z,13.43
2019-06-08T06:41:54.479Z,13.10
2019-06-08T06:44:20.593Z,14.07
2019-06-08T06:46:47.930Z,12.78
2019-06-08T06:49:14.229Z,14.40
2019-06-08T06:51:40.340Z,14.13
2019-06-08T06:54:06.476Z,14.23
2019-06-08T06:56:32.596Z,14.28
2019-06-08T06:58:58.736Z,13.43
2019-06-08T07:01:24.845Z,14.15
2019-06-08T07:03:52.111Z,14.30
2019-06-08T07:06:18.274Z,14.10
2019-06-08T07:09:21.580Z,15.03
2019-06-08T07:11:48.787Z,14.55
2019-06-08T07:14:15.023Z,12.47
2019-06-08T07:16:41.051Z,12.63
2019-06-08T07:19:07.161Z,12.07
2019-06-08T07:21:41.796Z,12.55
2019-06-08T07:24:01.177Z,11.22
2019-06-08T07:26:27.308Z,11.78
2019-06-08T07:28:54.178Z,11.65
2019-06-08T07:31:21.381Z,11.73
2019-06-08T07:33:48.701Z,12.47
2019-06-08T07:36:15.484Z,12.15
2019-06-08T07:38:41.602Z,12.95
2019-06-08T07:41:07.713Z,12.05
2019-06-08T07:43:33.714Z,12.63
2019-06-08T07:45:59.614Z,10.43
2019-06-08T07:48:25.633Z,10.43
2019-06-08T07:50:52.255Z,10.10
2019-06-08T07:53:18.345Z,9.75
2019-06-08T07:55:45.361Z,9.33
2019-06-08T07:58:11.787Z,9.60
2019-06-08T08:00:37.897Z,9.85
2019-06-08T08:03:03.999Z,9.20
2019-06-08T08:05:30.112Z,10.13
2019-06-08T08:07:56.921Z,8.48
2019-06-08T08:10:23.053Z,9.30
2019-06-08T08:12:50.834Z,9.05
2019-06-08T08:15:17.721Z,9.45
2019-06-08T08:17:43.876Z,8.70
2019-06-08T08:20:10.267Z,8.18
2019-06-08T08:22:38.157Z,8.85
2019-06-08T08:25:05.265Z,8.80
2019-06-08T08:27:31.254Z,9.15
2019-06-08T08:30:00.042Z,9.15
2019-06-08T08:32:25.074Z,8.48
2019-06-08T08:34:52.128Z,9.25
2019-06-08T08:37:18.331Z,9.43
2019-06-08T08:39:44.435Z,8.88
2019-06-08T08:42:10.585Z,10.43
2019-06-08T08:44:37.988Z,8.75
2019-06-08T08:47:04.356Z,10.45
2019-06-08T08:49:30.503Z,9.90
2019-06-08T08:51:59.023Z,8.83
2019-06-08T08:54:24.765Z,9.75
2019-06-08T08:56:52.913Z,9.00
2019-06-08T08:59:18.631Z,9.88
2019-06-08T09:01:44.769Z,9.33
2019-06-08T09:04:10.906Z,9.40
2019-06-08T09:06:38.074Z,9.18
2019-06-08T09:09:05.535Z,9.98
2019-06-08T09:11:31.466Z,9.50
2019-06-08T09:14:02.506Z,8.88
2019-06-08T09:16:25.602Z,10.78
2019-06-08T09:18:52.643Z,10.13
2019-06-08T09:21:19.800Z,8.97
2019-06-08T09:23:48.424Z,8.48
2019-06-08T09:26:13.943Z,8.57
2019-06-08T09:28:40.047Z,8.63
2019-06-08T09:31:08.266Z,9.48
2019-06-08T09:33:34.222Z,9.20
2019-06-08T09:36:02.813Z,9.58
2019-06-08T09:38:28.780Z,8.93
2019-06-08T09:40:55.000Z,8.28
2019-06-08T09:43:21.040Z,8.18
2019-06-08T09:45:48.314Z,9.38
2019-06-08T09:48:14.611Z,10.13
2019-06-08T09:50:40.641Z,8.50
2019-06-08T09:53:23.029Z,8.85
2019-06-08T09:55:34.769Z,7.67
2019-06-08T09:58:06.240Z,9.00
2019-06-08T10:00:29.426Z,8.80
2019-06-08T10:02:59.355Z,10.18
2019-06-08T10:05:23.940Z,8.97
2019-06-08T10:07:50.048Z,8.73
2019-06-08T10:10:18.140Z,10.23
2019-06-08T10:12:44.308Z,11.35
2019-06-08T10:15:11.087Z,11.28
2019-06-08T10:17:37.733Z,12.03
2019-06-08T10:20:07.389Z,12.05
2019-06-08T10:22:32.658Z,10.75
2019-06-08T10:25:03.707Z,11.88
2019-06-08T10:27:28.337Z,11.77
2019-06-08T10:29:55.228Z,11.93
2019-06-08T10:32:23.397Z,10.43
2019-06-08T10:34:49.406Z,10.13
2019-06-08T10:37:15.559Z,12.25
2019-06-08T10:39:41.682Z,10.60
2019-06-08T10:42:11.041Z,11.33
2019-06-08T10:44:38.070Z,11.60
2019-06-08T10:47:06.333Z,11.95
2019-06-08T10:49:31.972Z,11.07
2019-06-08T10:52:00.370Z,11.53
2019-06-08T10:54:27.738Z,10.80
2019-06-08T10:56:54.087Z,11.15
2019-06-08T10:59:20.235Z,10.53
2019-06-08T11:01:46.323Z,10.18
2019-06-08T11:04:12.497Z,10.55
2019-06-08T11:06:40.269Z,9.18
2019-06-08T11:09:12.331Z,9.07
2019-06-08T11:11:35.158Z,8.85
2019-06-08T11:14:03.789Z,10.08
2019-06-08T11:16:29.215Z,10.20
2019-06-08T11:18:55.324Z,9.00
2019-06-08T11:21:21.455Z,8.60
2019-06-08T11:24:04.762Z,8.85
2019-06-08T11:26:20.884Z,8.10
2019-06-08T11:28:43.931Z,8.43
2019-06-08T11:31:15.773Z,8.65
2019-06-08T11:33:38.996Z,9.73
2019-06-08T11:36:08.005Z,9.90
2019-06-08T11:38:33.351Z,9.40
2019-06-08T11:41:02.064Z,7.85
2019-06-08T11:43:28.685Z,8.00
2019-06-08T11:45:54.764Z,7.47
2019-06-08T11:48:20.770Z,7.25
2019-06-08T11:50:48.903Z,8.18
2019-06-08T11:53:17.731Z,6.90
2019-06-08T11:55:42.911Z,8.00
2019-06-08T11:58:11.859Z,7.90
2019-06-08T12:00:51.372Z,7.05
2019-06-08T12:03:17.506Z,7.55
2019-06-08T12:05:43.525Z,7.97
2019-06-08T12:08:10.604Z,7.42
2019-06-08T12:10:38.231Z,7.42
2019-06-08T12:13:04.859Z,7.20
2019-06-08T12:15:31.002Z,7.45
2019-06-08T12:17:58.654Z,8.35
2019-06-08T12:20:24.939Z,8.35
2019-06-08T12:22:50.955Z,8.40
2019-06-08T12:25:16.960Z,8.70
2019-06-08T12:27:42.863Z,8.80
2019-06-08T12:30:18.691Z,8.25
2019-06-08T12:32:37.128Z,8.50
2019-06-08T12:35:05.157Z,7.90
2019-06-08T12:37:31.339Z,7.60
2019-06-08T12:39:57.925Z,8.78
2019-06-08T12:42:25.330Z,8.37
2019-06-08T12:44:51.443Z,6.97
2019-06-08T12:47:21.466Z,7.67
2019-06-08T12:49:45.293Z,7.87
2019-06-08T12:52:12.922Z,8.13
2019-06-08T12:54:39.297Z,8.50
2019-06-08T12:57:05.436Z,8.53
2019-06-08T12:59:31.555Z,8.63
2019-06-08T13:01:58.645Z,8.48
2019-06-08T13:04:24.725Z,8.88
2019-06-08T13:06:50.722Z,9.13
2019-06-08T13:09:18.881Z,9.48
2019-06-08T13:11:44.598Z,8.63
2019-06-08T13:14:11.839Z,9.13
2019-06-08T13:16:38.553Z,8.63
2019-06-08T13:19:04.563Z,8.30
2019-06-08T13:21:35.018Z,9.28
2019-06-08T13:23:58.610Z,8.10
2019-06-08T13:26:27.902Z,7.97
2019-06-08T13:28:52.448Z,8.67
2019-06-08T13:31:22.110Z,8.45
2019-06-08T13:33:48.386Z,8.70
2019-06-08T13:36:14.404Z,9.08
2019-06-08T13:38:40.322Z,7.75
2019-06-08T13:41:08.628Z,8.08
2019-06-08T13:43:34.352Z,8.85
2019-06-08T13:46:00.417Z,7.40
2019-06-08T13:48:26.961Z,7.70
2019-06-08T13:50:52.966Z,8.20
2019-06-08T13:53:24.407Z,8.68
2019-06-08T13:55:53.388Z,8.03
2019-06-08T13:58:15.195Z,7.22
2019-06-08T14:00:41.343Z,8.18
2019-06-08T14:03:08.463Z,6.50
2019-06-08T14:05:34.663Z,7.45
2019-06-08T14:08:00.767Z,8.10
2019-06-08T14:10:39.076Z,7.97
2019-06-08T14:13:05.871Z,8.10
2019-06-08T14:15:31.878Z,8.73
2019-06-08T14:17:58.626Z,9.63
2019-06-08T14:20:28.360Z,8.98
2019-06-08T14:22:53.024Z,8.65
2019-06-08T14:25:21.524Z,8.55
2019-06-08T14:27:47.680Z,9.07
2019-06-08T14:30:13.848Z,8.60
2019-06-08T14:32:39.849Z,8.88
2019-06-08T14:35:08.421Z,8.43
2019-06-08T14:37:33.905Z,8.60
2019-06-08T14:40:00.010Z,10.55
2019-06-08T14:42:29.864Z,9.63
2019-06-08T14:44:53.952Z,9.33
2019-06-08T14:47:20.917Z,9.03
2019-06-08T14:49:48.800Z,9.43
2019-06-08T14:52:15.164Z,9.63
2019-06-08T14:54:41.277Z,8.15
2019-06-08T14:57:07.851Z,8.65
2019-06-08T14:59:34.030Z,8.40
2019-06-08T15:01:59.963Z,9.43
2019-06-08T15:04:32.295Z,10.38
2019-06-08T15:06:54.691Z,8.43
2019-06-08T15:09:21.326Z,8.08
2019-06-08T15:11:48.052Z,9.23
2019-06-08T15:14:14.269Z,8.60
2019-06-08T15:16:41.845Z,8.45
2019-06-08T15:19:08.196Z,8.70
2019-06-08T15:21:34.315Z,8.70
2019-06-08T15:24:00.437Z,9.95
2019-06-08T15:26:32.770Z,8.68
2019-06-08T15:28:54.502Z,11.47
2019-06-08T15:31:21.122Z,17.48
2019-06-08T15:33:48.198Z,9.88
2019-06-08T15:36:14.422Z,10.30
2019-06-08T15:38:40.625Z,11.15
2019-06-08T15:41:07.786Z,11.45
2019-06-08T15:43:37.079Z,9.23
2019-06-08T15:46:02.021Z,9.10
2019-06-08T15:48:29.417Z,10.00
2019-06-08T15:50:58.446Z,9.28
2019-06-08T15:53:24.369Z,9.70
2019-06-08T15:55:51.560Z,9.18
2019-06-08T15:58:18.266Z,8.98
2019-06-08T16:00:44.293Z,8.58
2019-06-08T16:03:10.304Z,8.55
2019-06-08T16:05:36.336Z,8.65
2019-06-08T16:08:02.414Z,8.88
2019-06-08T16:10:28.418Z,9.10
2019-06-08T16:12:54.328Z,8.28
2019-06-08T16:15:20.432Z,8.65
2019-06-08T16:17:46.456Z,9.40
2019-06-08T16:20:12.575Z,9.45
2019-06-08T16:22:38.575Z,11.15
2019-06-08T16:25:04.981Z,9.73
2019-06-08T16:27:32.135Z,9.23
2019-06-08T16:29:58.295Z,8.80
2019-06-08T16:32:24.425Z,9.75
2019-06-08T16:34:50.474Z,8.65
2019-06-08T16:37:16.592Z,8.65
2019-06-08T16:39:42.488Z,8.58
2019-06-08T16:42:08.625Z,9.70
2019-06-08T16:44:34.869Z,9.58
2019-06-08T16:47:01.250Z,9.33
2019-06-08T16:49:27.298Z,9.15
2019-06-08T16:51:53.406Z,9.05
2019-06-08T16:54:19.413Z,9.08
2019-06-08T16:56:45.444Z,10.82
2019-06-08T16:59:11.587Z,11.68
2019-06-08T17:01:38.919Z,10.28
2019-06-08T17:04:05.367Z,9.38
2019-06-08T17:06:31.424Z,9.28
2019-06-08T17:08:57.434Z,8.85
2019-06-08T17:11:23.606Z,10.00
2019-06-08T17:13:49.609Z,9.13
2019-06-08T17:16:15.652Z,9.68
2019-06-08T17:18:41.758Z,8.35
2019-06-08T17:21:07.892Z,9.13
2019-06-08T17:23:34.417Z,17.85
2019-06-08T17:26:00.635Z,9.33
2019-06-08T17:28:26.752Z,11.03
2019-06-08T17:30:52.782Z,12.25
2019-06-08T17:33:18.920Z,12.05
2019-06-08T17:35:45.029Z,13.48
2019-06-08T17:38:11.142Z,12.43
2019-06-08T17:40:38.086Z,12.05
2019-06-08T17:43:04.371Z,27.37
2019-06-08T17:45:30.268Z,12.85
2019-06-08T17:47:56.370Z,12.63
2019-06-08T17:50:22.478Z,11.68
2019-06-08T17:52:48.498Z,12.55
2019-06-08T17:55:14.928Z,11.65
2019-06-08T17:57:48.521Z,14.23
2019-06-08T18:00:11.430Z,9.50
2019-06-08T18:02:40.280Z,12.10
2019-06-08T18:05:07.047Z,11.30
2019-06-08T18:07:33.743Z,10.82
2019-06-08T18:10:00.136Z,10.40
2019-06-08T18:12:27.116Z,11.45
2019-06-08T18:14:53.295Z,10.98
2019-06-08T18:17:19.437Z,11.20
2019-06-08T18:19:47.096Z,10.10
2019-06-08T18:22:15.283Z,9.80
2019-06-08T18:24:42.326Z,8.65
2019-06-08T18:27:09.522Z,9.13
2019-06-08T18:29:39.144Z,8.40
2019-06-08T18:32:03.635Z,9.40
2019-06-08T18:34:29.540Z,8.50
2019-06-08T18:36:57.855Z,10.00
2019-06-08T18:39:24.690Z,7.72
2019-06-08T18:41:50.603Z,14.70
2019-06-08T18:44:17.384Z,7.87
2019-06-08T18:46:43.605Z,8.15
2019-06-08T18:49:09.506Z,7.60
2019-06-08T18:51:37.748Z,8.83
2019-06-08T18:54:11.770Z,7.65
2019-06-08T18:56:31.516Z,7.47
2019-06-08T18:58:58.304Z,7.53
2019-06-08T19:01:24.586Z,7.22
2019-06-08T19:03:52.543Z,7.17
2019-06-08T19:06:19.034Z,7.58
2019-06-08T19:08:49.202Z,8.03
2019-06-08T19:11:13.608Z,7.60
2019-06-08T19:13:40.109Z,6.90
2019-06-08T19:16:07.587Z,7.87
2019-06-08T19:18:33.678Z,6.28
2019-06-08T19:21:00.734Z,6.40
2019-06-08T19:23:27.988Z,6.70
2019-06-08T19:25:54.142Z,5.30
2019-06-08T19:28:35.169Z,5.47
2019-06-08T19:30:51.381Z,5.15
2019-06-08T19:33:17.966Z,5.10
2019-06-08T19:35:44.318Z,5.65
2019-06-08T19:38:10.746Z,4.97
2019-06-08T19:40:37.922Z,5.33
2019-06-08T19:43:04.909Z,5.10
2019-06-08T19:45:30.849Z,4.80
2019-06-08T19:47:57.787Z,5.17
2019-06-08T19:50:23.980Z,4.95
2019-06-08T19:52:53.142Z,4.90
2019-06-08T19:55:18.272Z,5.28
2019-06-08T19:57:46.378Z,4.55
2019-06-08T20:00:12.710Z,4.90
2019-06-08T20:02:38.727Z,4.58
2019-06-08T20:05:07.695Z,5.25
2019-06-08T20:07:33.109Z,4.95
2019-06-08T20:09:59.118Z,4.67
2019-06-08T20:12:28.145Z,4.35
2019-06-08T20:14:54.448Z,5.05
2019-06-08T20:17:20.560Z,4.22
2019-06-08T20:19:48.016Z,4.65
2019-06-08T20:22:14.709Z,4.33
2019-06-08T20:24:42.413Z,4.95
2019-06-08T20:27:10.265Z,4.80
2019-06-08T20:29:38.153Z,4.25
2019-06-08T20:32:04.444Z,5.35
2019-06-08T20:34:30.454Z,4.78
2019-06-08T20:36:57.694Z,5.50
2019-06-08T20:39:24.481Z,4.75
2019-06-08T20:41:51.898Z,4.35
2019-06-08T20:44:18.427Z,4.25
2019-06-08T20:46:44.430Z,4.47
2019-06-08T20:49:10.556Z,5.00
2019-06-08T20:51:37.452Z,4.33
2019-06-08T20:54:03.779Z,4.40
2019-06-08T20:56:29.886Z,4.47
2019-06-08T20:58:57.416Z,4.12
2019-06-08T21:01:23.590Z,3.95
2019-06-08T21:03:51.256Z,4.95
2019-06-08T21:06:17.618Z,4.87
2019-06-08T21:08:44.027Z,3.83
2019-06-08T21:11:10.250Z,4.17
2019-06-08T21:13:37.469Z,3.77
2019-06-08T21:16:03.776Z,4.25
2019-06-08T21:18:30.697Z,4.50
2019-06-08T21:20:58.077Z,5.45
2019-06-08T21:23:24.379Z,4.62
2019-06-08T21:25:53.545Z,4.17
2019-06-08T21:28:18.413Z,3.87
2019-06-08T21:30:46.470Z,3.87
2019-06-08T21:33:12.549Z,4.13
2019-06-08T21:35:38.607Z,3.83
2019-06-08T21:38:20.251Z,4.10
2019-06-08T21:40:32.598Z,4.28
2019-06-08T21:43:01.120Z,4.12
2019-06-08T21:45:27.619Z,3.35
2019-06-08T21:47:54.501Z,4.00
2019-06-08T21:50:20.658Z,3.45
2019-06-08T21:52:48.666Z,3.95
2019-06-08T21:55:14.628Z,3.80
2019-06-08T21:57:40.660Z,4.60
2019-06-08T22:00:26.915Z,3.52
2019-06-08T22:02:37.590Z,3.65
2019-06-08T22:05:08.288Z,3.95
2019-06-08T22:07:34.533Z,3.83
2019-06-08T22:10:00.668Z,3.70
2019-06-08T22:12:26.676Z,3.98
2019-06-08T22:14:52.810Z,4.37
2019-06-08T22:17:19.022Z,3.90
2019-06-08T22:19:47.365Z,3.77
2019-06-08T22:22:13.133Z,4.97
2019-06-08T22:24:39.141Z,4.05
2019-06-08T22:27:07.205Z,3.98
2019-06-08T22:29:33.396Z,4.50
2019-06-08T22:31:59.772Z,4.17
2019-06-08T22:34:28.054Z,4.50
2019-06-08T22:36:54.256Z,4.03
2019-06-08T22:39:20.423Z,3.95
2019-06-08T22:41:47.832Z,3.80
2019-06-08T22:44:13.888Z,4.50
2019-06-08T22:46:39.836Z,4.05
2019-06-08T22:49:08.003Z,4.37
2019-06-08T22:51:33.970Z,4.08
2019-06-08T22:54:02.030Z,4.35
2019-06-08T22:56:28.104Z,3.95
2019-06-08T22:58:55.786Z,4.00
2019-06-08T23:01:22.050Z,4.12
2019-06-08T23:03:48.061Z,4.03
2019-06-08T23:06:14.181Z,4.78
2019-06-08T23:08:40.199Z,3.65
2019-06-08T23:11:08.464Z,4.20
2019-06-08T23:13:34.344Z,4.83
2019-06-08T23:16:02.536Z,4.00
2019-06-08T23:18:28.265Z,4.08
2019-06-08T23:20:55.600Z,6.00
2019-06-08T23:23:22.333Z,5.62
2019-06-08T23:25:48.341Z,4.00
2019-06-08T23:28:14.459Z,4.67
2019-06-08T23:30:40.584Z,5.53
2019-06-08T23:33:11.025Z,4.22
2019-06-08T23:35:51.364Z,3.72
2019-06-08T23:38:02.979Z,4.28
2019-06-08T23:40:29.253Z,4.30
2019-06-08T23:42:55.257Z,4.12
2019-06-08T23:45:21.394Z,4.15
2019-06-08T23:47:48.065Z,4.05
2019-06-08T23:50:14.427Z,4.17
2019-06-08T23:52:40.570Z,4.22
2019-06-08T23:55:10.590Z,4.10
2019-06-08T23:57:35.031Z,4.20
